sensor_id;sensor_type;location;lat;lon;timestamp;pressure;altitude;pressure_sealevel;temperature;humidity
17607;BME280;69222;52.242;20.980;2024-02-04T00:01:34;99714.66;;;6.77;74.98
17607;BME280;69222;52.242;20.980;2024-02-04T00:04:04;99733.41;;;6.76;73.69
17607;BME280;69222;52.242;20.980;2024-02-04T00:06:32;99718.03;;;6.76;74.35
17607;BME280;69222;52.242;20.980;2024-02-04T00:09:01;99730.00;;;6.73;73.80
17607;BME280;69222;52.242;20.980;2024-02-04T00:11:30;99728.28;;;6.73;73.84
17607;BME280;69222;52.242;20.980;2024-02-04T00:13:58;99727.44;;;6.71;74.12
17607;BME280;69222;52.242;20.980;2024-02-04T00:16:26;99738.53;;;6.72;74.39
17607;BME280;69222;52.242;20.980;2024-02-04T00:18:54;99727.44;;;6.71;73.63
17607;BME280;69222;52.242;20.980;2024-02-04T00:21:23;99726.56;;;6.69;74.71
17607;BME280;69222;52.242;20.980;2024-02-04T00:23:51;99719.75;;;6.68;74.35
17607;BME280;69222;52.242;20.980;2024-02-04T00:26:19;99713.78;;;6.66;74.89
17607;BME280;69222;52.242;20.980;2024-02-04T00:28:47;99713.81;;;6.63;74.95
17607;BME280;69222;52.242;20.980;2024-02-04T00:31:15;99714.66;;;6.64;74.96
17607;BME280;69222;52.242;20.980;2024-02-04T00:33:43;99698.44;;;6.60;75.39
17607;BME280;69222;52.242;20.980;2024-02-04T00:36:11;99706.97;;;6.61;76.06
17607;BME280;69222;52.242;20.980;2024-02-04T00:38:40;99696.75;;;6.59;75.55
17607;BME280;69222;52.242;20.980;2024-02-04T00:41:08;99692.47;;;6.57;75.26
17607;BME280;69222;52.242;20.980;2024-02-04T00:43:36;99698.44;;;6.54;75.39
17607;BME280;69222;52.242;20.980;2024-02-04T00:46:04;99706.97;;;6.54;75.28
17607;BME280;69222;52.242;20.980;2024-02-04T00:48:33;99704.41;;;6.51;75.55
17607;BME280;69222;52.242;20.980;2024-02-04T00:51:01;99712.09;;;6.50;75.73
17607;BME280;69222;52.242;20.980;2024-02-04T00:53:29;99712.97;;;6.52;75.92
17607;BME280;69222;52.242;20.980;2024-02-04T00:56:03;99706.97;;;6.51;75.56
17607;BME280;69222;52.242;20.980;2024-02-04T00:58:31;99721.47;;;6.49;75.68
17607;BME280;69222;52.242;20.980;2024-02-04T01:00:59;99705.28;;;6.49;75.82
17607;BME280;69222;52.242;20.980;2024-02-04T01:03:27;99718.06;;;6.47;76.11
17607;BME280;69222;52.242;20.980;2024-02-04T01:05:55;99712.94;;;6.46;77.23
17607;BME280;69222;52.242;20.980;2024-02-04T01:08:23;99724.06;;;6.45;76.91
17607;BME280;69222;52.242;20.980;2024-02-04T01:10:51;99720.63;;;6.40;77.24
17607;BME280;69222;52.242;20.980;2024-02-04T01:13:20;99724.03;;;6.39;77.47
17607;BME280;69222;52.242;20.980;2024-02-04T01:15:48;99722.31;;;6.36;77.57
17607;BME280;69222;52.242;20.980;2024-02-04T01:18:16;99730.88;;;6.34;78.03
17607;BME280;69222;52.242;20.980;2024-02-04T01:20:45;99727.44;;;6.32;78.62
17607;BME280;69222;52.242;20.980;2024-02-04T01:23:14;99726.59;;;6.33;78.73
17607;BME280;69222;52.242;20.980;2024-02-04T01:25:44;99720.63;;;6.32;78.98
17607;BME280;69222;52.242;20.980;2024-02-04T01:28:11;99733.41;;;6.32;79.41
17607;BME280;69222;52.242;20.980;2024-02-04T01:30:41;99727.44;;;6.33;79.56
17607;BME280;69222;52.242;20.980;2024-02-04T01:33:09;99726.59;;;6.33;79.86
17607;BME280;69222;52.242;20.980;2024-02-04T01:35:36;99736.00;;;6.34;80.39
17607;BME280;69222;52.242;20.980;2024-02-04T01:38:04;99726.59;;;6.36;80.26
17607;BME280;69222;52.242;20.980;2024-02-04T01:40:32;99727.47;;;6.38;80.51
17607;BME280;69222;52.242;20.980;2024-02-04T01:43:00;99728.31;;;6.41;80.46
17607;BME280;69222;52.242;20.980;2024-02-04T01:45:28;99720.63;;;6.41;80.13
17607;BME280;69222;52.242;20.980;2024-02-04T01:47:58;99726.59;;;6.40;80.70
17607;BME280;69222;52.242;20.980;2024-02-04T01:50:26;99722.34;;;6.38;80.48
17607;BME280;69222;52.242;20.980;2024-02-04T01:52:54;99709.53;;;6.32;80.90
17607;BME280;69222;52.242;20.980;2024-02-04T01:55:22;99701.88;;;6.30;81.48
17607;BME280;69222;52.242;20.980;2024-02-04T01:57:50;99697.59;;;6.27;81.81
17607;BME280;69222;52.242;20.980;2024-02-04T02:00:18;99688.22;;;6.23;82.22
17607;BME280;69222;52.242;20.980;2024-02-04T02:02:47;99689.06;;;6.21;81.87
17607;BME280;69222;52.242;20.980;2024-02-04T02:05:17;99695.03;;;6.18;82.57
17607;BME280;69222;52.242;20.980;2024-02-04T02:07:45;99699.28;;;6.18;82.49
17607;BME280;69222;52.242;20.980;2024-02-04T02:10:18;99712.94;;;6.17;82.91
17607;BME280;69222;52.242;20.980;2024-02-04T02:12:48;99706.13;;;6.17;83.04
17607;BME280;69222;52.242;20.980;2024-02-04T02:15:20;99697.59;;;6.17;82.65
17607;BME280;69222;52.242;20.980;2024-02-04T02:17:54;99701.00;;;6.16;82.59
17607;BME280;69222;52.242;20.980;2024-02-04T02:20:28;99683.97;;;6.16;82.44
17607;BME280;69222;52.242;20.980;2024-02-04T02:23:06;99689.06;;;6.16;82.97
17607;BME280;69222;52.242;20.980;2024-02-04T02:25:37;99685.66;;;6.14;82.96
17607;BME280;69222;52.242;20.980;2024-02-04T02:28:04;99697.59;;;6.15;82.86
17607;BME280;69222;52.242;20.980;2024-02-04T02:30:32;99689.06;;;6.16;82.68
17607;BME280;69222;52.242;20.980;2024-02-04T02:33:01;99693.31;;;6.17;82.02
17607;BME280;69222;52.242;20.980;2024-02-04T02:35:29;99692.47;;;6.17;82.23
17607;BME280;69222;52.242;20.980;2024-02-04T02:38:15;99688.22;;;6.17;82.13
17607;BME280;69222;52.242;20.980;2024-02-04T02:40:53;99680.56;;;6.19;82.08
17607;BME280;69222;52.242;20.980;2024-02-04T02:43:22;99680.56;;;6.19;81.65
17607;BME280;69222;52.242;20.980;2024-02-04T02:45:51;99702.72;;;6.23;82.07
17607;BME280;69222;52.242;20.980;2024-02-04T02:48:19;99706.97;;;6.21;81.97
17607;BME280;69222;52.242;20.980;2024-02-04T02:50:47;99704.41;;;6.21;81.75
17607;BME280;69222;52.242;20.980;2024-02-04T02:53:15;99706.97;;;6.25;82.03
17607;BME280;69222;52.242;20.980;2024-02-04T02:55:47;99699.28;;;6.28;81.75
17607;BME280;69222;52.242;20.980;2024-02-04T02:58:15;99696.75;;;6.30;80.28
17607;BME280;69222;52.242;20.980;2024-02-04T03:00:43;99697.59;;;6.32;81.21
17607;BME280;69222;52.242;20.980;2024-02-04T03:03:12;99692.50;;;6.34;81.40
17607;BME280;69222;52.242;20.980;2024-02-04T03:05:40;99689.06;;;6.36;80.66
17607;BME280;69222;52.242;20.980;2024-02-04T03:08:08;99691.63;;;6.35;80.70
17607;BME280;69222;52.242;20.980;2024-02-04T03:10:36;99687.38;;;6.35;80.86
17607;BME280;69222;52.242;20.980;2024-02-04T03:13:05;99685.66;;;6.37;80.48
17607;BME280;69222;52.242;20.980;2024-02-04T03:15:33;99685.66;;;6.37;80.31
17607;BME280;69222;52.242;20.980;2024-02-04T03:18:01;99688.22;;;6.39;80.15
17607;BME280;69222;52.242;20.980;2024-02-04T03:20:29;99694.19;;;6.39;79.69
17607;BME280;69222;52.242;20.980;2024-02-04T03:22:57;99680.53;;;6.39;79.67
17607;BME280;69222;52.242;20.980;2024-02-04T03:25:25;99671.16;;;6.35;79.13
17607;BME280;69222;52.242;20.980;2024-02-04T03:27:55;99693.34;;;6.36;78.64
17607;BME280;69222;52.242;20.980;2024-02-04T03:30:24;99690.78;;;6.36;78.52
17607;BME280;69222;52.242;20.980;2024-02-04T03:32:52;99695.88;;;6.36;77.85
17607;BME280;69222;52.242;20.980;2024-02-04T03:35:20;99696.75;;;6.35;76.59
17607;BME280;69222;52.242;20.980;2024-02-04T03:37:48;99701.00;;;6.33;75.76
17607;BME280;69222;52.242;20.980;2024-02-04T03:40:16;99701.88;;;6.35;75.79
17607;BME280;69222;52.242;20.980;2024-02-04T03:42:46;99685.66;;;6.37;74.66
17607;BME280;69222;52.242;20.980;2024-02-04T03:45:14;99691.63;;;6.38;73.69
17607;BME280;69222;52.242;20.980;2024-02-04T03:47:43;99689.06;;;6.36;73.80
17607;BME280;69222;52.242;20.980;2024-02-04T03:50:11;99695.91;;;6.37;73.21
17607;BME280;69222;52.242;20.980;2024-02-04T03:52:39;99702.72;;;6.38;73.11
17607;BME280;69222;52.242;20.980;2024-02-04T03:55:07;99701.88;;;6.38;72.46
17607;BME280;69222;52.242;20.980;2024-02-04T03:57:35;99710.38;;;6.40;72.09
17607;BME280;69222;52.242;20.980;2024-02-04T04:00:04;99714.69;;;6.41;72.04
17607;BME280;69222;52.242;20.980;2024-02-04T04:02:32;99708.69;;;6.40;72.01
17607;BME280;69222;52.242;20.980;2024-02-04T04:05:01;99712.97;;;6.38;71.70
17607;BME280;69222;52.242;20.980;2024-02-04T04:07:29;99712.09;;;6.36;72.68
17607;BME280;69222;52.242;20.980;2024-02-04T04:09:57;99717.22;;;6.38;72.08
17607;BME280;69222;52.242;20.980;2024-02-04T04:12:25;99720.63;;;6.40;71.84
17607;BME280;69222;52.242;20.980;2024-02-04T04:14:53;99724.91;;;6.41;73.01
17607;BME280;69222;52.242;20.980;2024-02-04T04:17:21;99714.66;;;6.44;72.47
17607;BME280;69222;52.242;20.980;2024-02-04T04:19:49;99717.22;;;6.44;72.36
17607;BME280;69222;52.242;20.980;2024-02-04T04:22:18;99703.56;;;6.45;72.67
17607;BME280;69222;52.242;20.980;2024-02-04T04:24:46;99720.63;;;6.46;72.64
17607;BME280;69222;52.242;20.980;2024-02-04T04:27:14;99724.03;;;6.48;72.66
17607;BME280;69222;52.242;20.980;2024-02-04T04:29:42;99722.31;;;6.44;72.14
17607;BME280;69222;52.242;20.980;2024-02-04T04:32:10;99722.34;;;6.41;73.12
17607;BME280;69222;52.242;20.980;2024-02-04T04:34:38;99739.41;;;6.39;72.49
17607;BME280;69222;52.242;20.980;2024-02-04T04:37:06;99725.75;;;6.38;71.77
17607;BME280;69222;52.242;20.980;2024-02-04T04:39:35;99723.16;;;6.29;70.93
17607;BME280;69222;52.242;20.980;2024-02-04T04:42:04;99725.75;;;6.24;70.03
17607;BME280;69222;52.242;20.980;2024-02-04T04:44:31;99726.59;;;6.19;69.24
17607;BME280;69222;52.242;20.980;2024-02-04T04:46:59;99735.97;;;6.15;68.91
17607;BME280;69222;52.242;20.980;2024-02-04T04:49:27;99739.38;;;6.08;68.54
17607;BME280;69222;52.242;20.980;2024-02-04T04:51:55;99735.94;;;6.01;68.68
17607;BME280;69222;52.242;20.980;2024-02-04T04:54:23;99735.94;;;5.98;69.89
17607;BME280;69222;52.242;20.980;2024-02-04T04:56:52;99741.91;;;5.94;70.54
17607;BME280;69222;52.242;20.980;2024-02-04T04:59:20;99737.59;;;5.92;70.53
17607;BME280;69222;52.242;20.980;2024-02-04T05:01:48;99744.41;;;5.90;70.99
17607;BME280;69222;52.242;20.980;2024-02-04T05:04:17;99762.31;;;5.93;71.66
17607;BME280;69222;52.242;20.980;2024-02-04T05:06:45;99758.03;;;5.92;71.17
17607;BME280;69222;52.242;20.980;2024-02-04T05:09:13;99758.03;;;5.86;71.78
17607;BME280;69222;52.242;20.980;2024-02-04T05:11:42;99740.97;;;5.81;72.05
17607;BME280;69222;52.242;20.980;2024-02-04T05:14:12;99736.69;;;5.76;71.67
17607;BME280;69222;52.242;20.980;2024-02-04T05:16:40;99733.22;;;5.63;71.15
17607;BME280;69222;52.242;20.980;2024-02-04T05:19:10;99769.03;;;5.62;71.81
17607;BME280;69222;52.242;20.980;2024-02-04T05:21:39;99751.97;;;5.56;72.06
17607;BME280;69222;52.242;20.980;2024-02-04T05:24:07;99763.81;;;5.45;72.10
17607;BME280;69222;52.242;20.980;2024-02-04T05:26:35;99773.19;;;5.41;71.04
17607;BME280;69222;52.242;20.980;2024-02-04T05:29:03;99765.50;;;5.37;71.88
17607;BME280;69222;52.242;20.980;2024-02-04T05:31:32;99752.72;;;5.37;71.28
17607;BME280;69222;52.242;20.980;2024-02-04T05:34:05;99758.69;;;5.37;71.04
17607;BME280;69222;52.242;20.980;2024-02-04T05:36:33;99757.84;;;5.37;71.36
17607;BME280;69222;52.242;20.980;2024-02-04T05:39:09;99769.78;;;5.38;70.64
17607;BME280;69222;52.242;20.980;2024-02-04T05:41:38;99767.22;;;5.38;70.81
17607;BME280;69222;52.242;20.980;2024-02-04T05:44:06;99769.78;;;5.38;70.62
17607;BME280;69222;52.242;20.980;2024-02-04T05:46:37;99769.78;;;5.38;71.14
17607;BME280;69222;52.242;20.980;2024-02-04T05:49:05;99774.91;;;5.38;71.29
17607;BME280;69222;52.242;20.980;2024-02-04T05:51:38;99780.00;;;5.39;71.06
17607;BME280;69222;52.242;20.980;2024-02-04T05:54:06;99766.38;;;5.39;71.87
17607;BME280;69222;52.242;20.980;2024-02-04T05:56:34;99756.13;;;5.36;71.80
17607;BME280;69222;52.242;20.980;2024-02-04T05:59:02;99757.00;;;5.38;71.49
17607;BME280;69222;52.242;20.980;2024-02-04T06:01:30;99761.25;;;5.39;71.66
17607;BME280;69222;52.242;20.980;2024-02-04T06:04:00;99757.00;;;5.39;72.51
17607;BME280;69222;52.242;20.980;2024-02-04T06:06:29;99742.50;;;5.37;72.44
17607;BME280;69222;52.242;20.980;2024-02-04T06:08:57;99728.03;;;5.36;72.24
17607;BME280;69222;52.242;20.980;2024-02-04T06:11:25;99734.84;;;5.37;72.38
17607;BME280;69222;52.242;20.980;2024-02-04T06:13:53;99734.00;;;5.36;73.06
17607;BME280;69222;52.242;20.980;2024-02-04T06:16:20;99734.84;;;5.35;73.26
17607;BME280;69222;52.242;20.980;2024-02-04T06:18:48;99741.66;;;5.36;72.94
17607;BME280;69222;52.242;20.980;2024-02-04T06:21:18;99754.44;;;5.39;72.94
17607;BME280;69222;52.242;20.980;2024-02-04T06:23:46;99763.81;;;5.39;72.87
17607;BME280;69222;52.242;20.980;2024-02-04T06:26:14;99739.97;;;5.35;73.54
17607;BME280;69222;52.242;20.980;2024-02-04T06:28:41;99751.88;;;5.35;74.61
17607;BME280;69222;52.242;20.980;2024-02-04T06:31:13;99739.06;;;5.25;74.32
17607;BME280;69222;52.242;20.980;2024-02-04T06:33:41;99733.91;;;5.22;74.86
17607;BME280;69222;52.242;20.980;2024-02-04T06:36:09;99741.56;;;5.16;76.39
17607;BME280;69222;52.242;20.980;2024-02-04T06:38:39;99739.00;;;5.16;75.59
17607;BME280;69222;52.242;20.980;2024-02-04T06:41:07;99742.38;;;5.15;76.83
17607;BME280;69222;52.242;20.980;2024-02-04T06:43:36;99737.31;;;5.17;77.06
17607;BME280;69222;52.242;20.980;2024-02-04T06:46:04;99741.53;;;5.15;76.10
17607;BME280;69222;52.242;20.980;2024-02-04T06:48:32;99746.66;;;5.15;77.08
17607;BME280;69222;52.242;20.980;2024-02-04T06:51:00;99747.50;;;5.12;77.98
17607;BME280;69222;52.242;20.980;2024-02-04T06:53:29;99750.88;;;5.11;78.04
17607;BME280;69222;52.242;20.980;2024-02-04T06:55:58;99741.53;;;5.12;78.09
17607;BME280;69222;52.242;20.980;2024-02-04T06:58:26;99746.59;;;5.07;78.22
17607;BME280;69222;52.242;20.980;2024-02-04T07:00:54;99754.28;;;5.10;77.79
17607;BME280;69222;52.242;20.980;2024-02-04T07:03:22;99756.00;;;5.11;79.08
17607;BME280;69222;52.242;20.980;2024-02-04T07:05:50;99776.41;;;5.05;78.58
17607;BME280;69222;52.242;20.980;2024-02-04T07:08:18;99771.28;;;5.05;78.19
17607;BME280;69222;52.242;20.980;2024-02-04T07:10:46;99771.28;;;5.08;79.19
17607;BME280;69222;52.242;20.980;2024-02-04T07:13:15;99774.72;;;5.10;78.39
17607;BME280;69222;52.242;20.980;2024-02-04T07:15:43;99773.03;;;5.09;78.65
17607;BME280;69222;52.242;20.980;2024-02-04T07:18:12;99767.06;;;5.10;77.83
17607;BME280;69222;52.242;20.980;2024-02-04T07:20:39;99776.44;;;5.09;78.11
17607;BME280;69222;52.242;20.980;2024-02-04T07:23:07;99759.41;;;5.15;78.60
17607;BME280;69222;52.242;20.980;2024-02-04T07:25:35;99766.25;;;5.19;77.96
17607;BME280;69222;52.242;20.980;2024-02-04T07:28:03;99764.56;;;5.16;78.78
17607;BME280;69222;52.242;20.980;2024-02-04T07:30:32;99762.84;;;5.18;78.60
17607;BME280;69222;52.242;20.980;2024-02-04T07:33:00;99758.59;;;5.19;78.45
17607;BME280;69222;52.242;20.980;2024-02-04T07:35:28;99762.88;;;5.21;78.80
17607;BME280;69222;52.242;20.980;2024-02-04T07:37:56;99761.19;;;5.26;77.39
17607;BME280;69222;52.242;20.980;2024-02-04T07:40:24;99773.97;;;5.29;78.44
17607;BME280;69222;52.242;20.980;2024-02-04T07:42:53;99758.69;;;5.31;77.11
17607;BME280;69222;52.242;20.980;2024-02-04T07:45:21;99775.72;;;5.30;77.32
17607;BME280;69222;52.242;20.980;2024-02-04T07:47:50;99781.69;;;5.36;78.02
17607;BME280;69222;52.242;20.980;2024-02-04T07:50:18;99773.16;;;5.35;77.60
17607;BME280;69222;52.242;20.980;2024-02-04T07:52:46;99779.97;;;5.35;78.00
17607;BME280;69222;52.242;20.980;2024-02-04T07:55:14;99769.78;;;5.39;77.62
17607;BME280;69222;52.242;20.980;2024-02-04T07:57:42;99767.22;;;5.41;76.72
17607;BME280;69222;52.242;20.980;2024-02-04T08:00:11;99766.38;;;5.40;77.25
17607;BME280;69222;52.242;20.980;2024-02-04T08:02:39;99766.38;;;5.39;77.11
17607;BME280;69222;52.242;20.980;2024-02-04T08:05:08;99763.81;;;5.39;77.57
17607;BME280;69222;52.242;20.980;2024-02-04T08:07:36;99764.66;;;5.35;77.81
17607;BME280;69222;52.242;20.980;2024-02-04T08:10:05;99750.19;;;5.35;78.19
17607;BME280;69222;52.242;20.980;2024-02-04T08:12:34;99767.16;;;5.30;77.02
17607;BME280;69222;52.242;20.980;2024-02-04T08:15:02;99750.97;;;5.23;77.20
17607;BME280;69222;52.242;20.980;2024-02-04T08:17:31;99767.13;;;5.21;77.01
17607;BME280;69222;52.242;20.980;2024-02-04T08:20:00;99771.38;;;5.20;78.55
17607;BME280;69222;52.242;20.980;2024-02-04T08:22:32;99772.25;;;5.21;78.54
17607;BME280;69222;52.242;20.980;2024-02-04T08:25:00;99770.50;;;5.18;78.37
17607;BME280;69222;52.242;20.980;2024-02-04T08:27:28;99759.47;;;5.22;77.76
17607;BME280;69222;52.242;20.980;2024-02-04T08:29:56;99765.44;;;5.24;77.45
17607;BME280;69222;52.242;20.980;2024-02-04T08:32:24;99768.00;;;5.26;76.74
17607;BME280;69222;52.242;20.980;2024-02-04T08:34:52;99757.81;;;5.27;76.89
17607;BME280;69222;52.242;20.980;2024-02-04T08:37:20;99773.97;;;5.29;77.58
17607;BME280;69222;52.242;20.980;2024-02-04T08:39:52;99756.09;;;5.29;77.85
17607;BME280;69222;52.242;20.980;2024-02-04T08:42:20;99765.50;;;5.30;76.38
17607;BME280;69222;52.242;20.980;2024-02-04T08:44:48;99769.69;;;5.22;77.26
17607;BME280;69222;52.242;20.980;2024-02-04T08:47:16;99767.16;;;5.25;76.77
17607;BME280;69222;52.242;20.980;2024-02-04T08:49:44;99768.03;;;5.27;76.70
17607;BME280;69222;52.242;20.980;2024-02-04T08:52:13;99775.69;;;5.27;75.97
17607;BME280;69222;52.242;20.980;2024-02-04T08:54:41;99768.84;;;5.26;75.96
17607;BME280;69222;52.242;20.980;2024-02-04T08:57:10;99776.50;;;5.26;76.68
17607;BME280;69222;52.242;20.980;2024-02-04T08:59:38;99772.28;;;5.31;75.65
17607;BME280;69222;52.242;20.980;2024-02-04T09:02:05;99770.63;;;5.35;76.19
17607;BME280;69222;52.242;20.980;2024-02-04T09:04:37;99788.50;;;5.40;75.46
17607;BME280;69222;52.242;20.980;2024-02-04T09:07:07;99780.00;;;5.41;74.26
17607;BME280;69222;52.242;20.980;2024-02-04T09:09:35;99780.00;;;5.39;74.20
17607;BME280;69222;52.242;20.980;2024-02-04T09:12:04;99760.38;;;5.37;74.53
17607;BME280;69222;52.242;20.980;2024-02-04T09:14:33;99776.56;;;5.34;75.11
17607;BME280;69222;52.242;20.980;2024-02-04T09:17:02;99777.41;;;5.36;74.79
17607;BME280;69222;52.242;20.980;2024-02-04T09:19:30;99765.50;;;5.35;75.83
17607;BME280;69222;52.242;20.980;2024-02-04T09:21:59;99751.03;;;5.34;74.84
17607;BME280;69222;52.242;20.980;2024-02-04T09:24:29;99766.34;;;5.36;74.82
17607;BME280;69222;52.242;20.980;2024-02-04T09:26:57;99762.91;;;5.27;75.13
17607;BME280;69222;52.242;20.980;2024-02-04T09:29:25;99772.28;;;5.30;76.09
17607;BME280;69222;52.242;20.980;2024-02-04T09:31:54;99766.34;;;5.32;75.32
17607;BME280;69222;52.242;20.980;2024-02-04T09:34:23;99760.41;;;5.38;74.81
17607;BME280;69222;52.242;20.980;2024-02-04T09:36:51;99758.69;;;5.40;74.44
17607;BME280;69222;52.242;20.980;2024-02-04T09:39:20;99776.59;;;5.45;74.47
17607;BME280;69222;52.242;20.980;2024-02-04T09:41:48;99778.31;;;5.47;74.53
17607;BME280;69222;52.242;20.980;2024-02-04T09:44:17;99780.03;;;5.48;73.77
17607;BME280;69222;52.242;20.980;2024-02-04T09:46:45;99763.84;;;5.46;74.52
17607;BME280;69222;52.242;20.980;2024-02-04T09:49:15;99767.25;;;5.45;74.93
17607;BME280;69222;52.242;20.980;2024-02-04T09:51:44;99743.38;;;5.40;74.51
17607;BME280;69222;52.242;20.980;2024-02-04T09:54:14;99764.69;;;5.44;75.33
17607;BME280;69222;52.242;20.980;2024-02-04T09:56:44;99767.25;;;5.45;74.81
17607;BME280;69222;52.242;20.980;2024-02-04T09:59:12;99744.25;;;5.42;74.65
17607;BME280;69222;52.242;20.980;2024-02-04T10:01:41;99741.72;;;5.45;74.90
17607;BME280;69222;52.242;20.980;2024-02-04T10:04:09;99723.81;;;5.48;74.65
17607;BME280;69222;52.242;20.980;2024-02-04T10:06:39;99734.03;;;5.48;74.65
17607;BME280;69222;52.242;20.980;2024-02-04T10:09:07;99728.94;;;5.50;74.43
17607;BME280;69222;52.242;20.980;2024-02-04T10:11:35;99724.69;;;5.49;74.13
17607;BME280;69222;52.242;20.980;2024-02-04T10:14:03;99722.13;;;5.52;75.06
17607;BME280;69222;52.242;20.980;2024-02-04T10:16:35;99711.06;;;5.50;74.47
17607;BME280;69222;52.242;20.980;2024-02-04T10:19:03;99724.69;;;5.50;74.31
17607;BME280;69222;52.242;20.980;2024-02-04T10:21:31;99714.47;;;5.52;74.46
17607;BME280;69222;52.242;20.980;2024-02-04T10:24:00;99706.78;;;5.52;74.68
17607;BME280;69222;52.242;20.980;2024-02-04T10:26:28;99711.91;;;5.49;74.84
17607;BME280;69222;52.242;20.980;2024-02-04T10:28:58;99697.44;;;5.49;75.50
17607;BME280;69222;52.242;20.980;2024-02-04T10:31:26;99699.13;;;5.55;74.10
17607;BME280;69222;52.242;20.980;2024-02-04T10:33:54;99694.91;;;5.57;74.45
17607;BME280;69222;52.242;20.980;2024-02-04T10:36:23;99685.53;;;5.57;75.00
17607;BME280;69222;52.242;20.980;2024-02-04T10:38:50;99685.53;;;5.61;74.42
17607;BME280;69222;52.242;20.980;2024-02-04T10:41:20;99671.91;;;5.63;75.00
17607;BME280;69222;52.242;20.980;2024-02-04T10:43:48;99686.41;;;5.67;74.81
17607;BME280;69222;52.242;20.980;2024-02-04T10:46:18;99679.59;;;5.69;74.05
17607;BME280;69222;52.242;20.980;2024-02-04T10:48:52;99667.66;;;5.70;75.42
17607;BME280;69222;52.242;20.980;2024-02-04T10:51:24;99654.03;;;5.68;75.56
17607;BME280;69222;52.242;20.980;2024-02-04T10:53:54;99638.69;;;5.60;75.40
17607;BME280;69222;52.242;20.980;2024-02-04T10:56:27;99643.78;;;5.62;75.48
17607;BME280;69222;52.242;20.980;2024-02-04T10:58:58;99648.91;;;5.62;76.04
17607;BME280;69222;52.242;20.980;2024-02-04T11:01:27;99654.00;;;5.62;75.45
17607;BME280;69222;52.242;20.980;2024-02-04T11:03:57;99658.28;;;5.63;76.17
17607;BME280;69222;52.242;20.980;2024-02-04T11:06:26;99638.69;;;5.52;76.48
17607;BME280;69222;52.242;20.980;2024-02-04T11:08:55;99642.06;;;5.54;77.39
17607;BME280;69222;52.242;20.980;2024-02-04T11:11:26;99630.16;;;5.61;76.73
17607;BME280;69222;52.242;20.980;2024-02-04T11:13:56;99646.31;;;5.55;77.17
17607;BME280;69222;52.242;20.980;2024-02-04T11:16:40;99636.09;;;5.55;77.34
17607;BME280;69222;52.242;20.980;2024-02-04T11:19:23;99642.94;;;5.49;78.61
17607;BME280;69222;52.242;20.980;2024-02-04T11:22:15;99631.00;;;5.51;79.07
17607;BME280;69222;52.242;20.980;2024-02-04T11:24:55;99624.19;;;5.53;79.65
17607;BME280;69222;52.242;20.980;2024-02-04T11:27:28;99641.22;;;5.49;79.49
17607;BME280;69222;52.242;20.980;2024-02-04T11:29:57;99622.47;;;5.46;80.73
17607;BME280;69222;52.242;20.980;2024-02-04T11:32:25;99626.75;;;5.45;80.91
17607;BME280;69222;52.242;20.980;2024-02-04T11:34:54;99628.44;;;5.42;81.52
17607;BME280;69222;52.242;20.980;2024-02-04T11:37:23;99624.16;;;5.39;82.50
17607;BME280;69222;52.242;20.980;2024-02-04T11:39:53;99619.03;;;5.41;82.76
17607;BME280;69222;52.242;20.980;2024-02-04T11:42:23;99625.84;;;5.40;82.96
17607;BME280;69222;52.242;20.980;2024-02-04T11:45:06;99623.28;;;5.37;83.24
17607;BME280;69222;52.242;20.980;2024-02-04T11:47:34;99616.47;;;5.31;84.34
17607;BME280;69222;52.242;20.980;2024-02-04T11:50:03;99627.53;;;5.30;84.95
17607;BME280;69222;52.242;20.980;2024-02-04T11:52:32;99608.81;;;5.27;85.13
17607;BME280;69222;52.242;20.980;2024-02-04T11:55:00;99600.25;;;5.26;84.71
17607;BME280;69222;52.242;20.980;2024-02-04T11:57:29;99607.09;;;5.29;85.52
17607;BME280;69222;52.242;20.980;2024-02-04T11:59:58;99587.50;;;5.28;86.56
17607;BME280;69222;52.242;20.980;2024-02-04T12:02:28;99598.59;;;5.31;86.05
17607;BME280;69222;52.242;20.980;2024-02-04T12:04:56;99593.50;;;5.35;86.37
17607;BME280;69222;52.242;20.980;2024-02-04T12:07:24;99580.72;;;5.31;87.02
17607;BME280;69222;52.242;20.980;2024-02-04T12:09:52;99578.16;;;5.35;85.82
17607;BME280;69222;52.242;20.980;2024-02-04T12:12:20;99572.19;;;5.36;87.13
17607;BME280;69222;52.242;20.980;2024-02-04T12:14:49;99571.34;;;5.32;86.00
17607;BME280;69222;52.242;20.980;2024-02-04T12:17:19;99565.38;;;5.31;85.14
17607;BME280;69222;52.242;20.980;2024-02-04T12:19:48;99560.25;;;5.30;86.27
17607;BME280;69222;52.242;20.980;2024-02-04T12:22:17;99540.69;;;5.37;86.58
17607;BME280;69222;52.242;20.980;2024-02-04T12:24:45;99535.59;;;5.40;85.01
17607;BME280;69222;52.242;20.980;2024-02-04T12:27:15;99547.50;;;5.41;84.96
17607;BME280;69222;52.242;20.980;2024-02-04T12:29:43;99537.28;;;5.39;84.81
17607;BME280;69222;52.242;20.980;2024-02-04T12:32:13;99544.09;;;5.43;84.86
17607;BME280;69222;52.242;20.980;2024-02-04T12:34:46;99536.44;;;5.46;84.98
17607;BME280;69222;52.242;20.980;2024-02-04T12:37:14;99534.75;;;5.50;84.32
17607;BME280;69222;52.242;20.980;2024-02-04T12:39:42;99540.69;;;5.55;84.97
17607;BME280;69222;52.242;20.980;2024-02-04T12:42:10;99518.56;;;5.57;86.13
17607;BME280;69222;52.242;20.980;2024-02-04T12:44:38;99525.38;;;5.61;84.32
17607;BME280;69222;52.242;20.980;2024-02-04T12:47:05;99525.38;;;5.63;84.54
17607;BME280;69222;52.242;20.980;2024-02-04T12:49:33;99521.13;;;5.60;85.19
17607;BME280;69222;52.242;20.980;2024-02-04T12:52:07;99525.38;;;5.63;84.28
17607;BME280;69222;52.242;20.980;2024-02-04T12:54:42;99521.13;;;5.66;85.03
17607;BME280;69222;52.242;20.980;2024-02-04T12:57:10;99512.63;;;5.64;83.60
17607;BME280;69222;52.242;20.980;2024-02-04T12:59:38;99498.97;;;5.62;84.74
17607;BME280;69222;52.242;20.980;2024-02-04T13:02:07;99501.53;;;5.61;84.67
17607;BME280;69222;52.242;20.980;2024-02-04T13:04:36;99498.97;;;5.61;84.44
17607;BME280;69222;52.242;20.980;2024-02-04T13:07:08;99495.56;;;5.60;84.42
17607;BME280;69222;52.242;20.980;2024-02-04T13:09:38;99494.72;;;5.56;85.25